Strona główna
METAR-TAF:

METAR-TAF

Lotnisko :

Port lotniczy Teheran-Mehrabad

Teheran, Iran

Szerokość geograficzna: 35-41N, Długość geograficzna: 051-21E, wysokość: 1204 m

Aktualna obserwacja pogody

Raport powstał 27 minut temu, godzina 14:00 UTC
Wiatr 14 kt od zachód
Temperatura 35°C
Wilgotność 9%
Ciśnienie 1008 hPa
Widzialność 10 km lub więcej
Mało chmury na wysokości 4000 ft

METAR: OIII 191400Z 28014KT 9999 FEW040 35/M03 Q1008 A2978 TEMPO 28007G12MPS

czas: 18:57 (14:27 UTC)

Prognoza

Raport powstał 3 godziny i 27 minut temu, godzina 11:00 UTC
Prognoza ważna od 19 godzina 12 UTC do 20 godzina 18 UTC
Wiatr 8 kt od zachodnio-południowy zachód
Widzialność 10 km lub więcej
Brak chmur poniżej 1500 m i brak chmur cumulonimbus
Przejściowo
od 19 godzina 12 UTC do 19 godzina 21 UTC
Wiatr 16 kt od północny zachód

TAF: OIII 191100Z 1912/2018 24004MPS CAVOK TEMPO 1912/1921 32008MPS

Obserwacja i prognoza pogody dla ponad 4000 lotnisk (raport METAR i TAF).

Dostępne stacje oznaczono żółtymi i czerwonymi punktami na mapie.

Najedź kursorem aby zobaczyć nazwę stacji.

Kliknij aby zobaczyć obserwacje i prognozy pogody.

Aby zmienić mapę: kliknij na zielony przycisk z czarnym krzyżykiem, aby powiększyć; na zielony przycisk z myślnikiem, aby pomniejszyć; na zielone strzałki, aby przejść do map sąsiednich.


METAR-TAF: